createdAt,value
2023-01-07T00:00:29.033Z,95344.53
2023-01-07T00:03:17.972Z,95352.13
2023-01-07T00:05:58.990Z,95356.38
2023-01-07T00:08:55.980Z,95357.22
2023-01-07T00:11:51.988Z,95355.53
2023-01-07T00:14:38.969Z,95362.31
2023-01-07T00:17:12.090Z,95369.91
2023-01-07T00:19:58.997Z,95367.38
2023-01-07T00:22:32.135Z,95379.22
2023-01-07T00:25:19.014Z,95373.31
2023-01-07T00:27:52.119Z,95376.69
2023-01-07T00:30:38.981Z,95374.97
2023-01-07T00:33:14.518Z,95369.91
2023-01-07T00:36:07.990Z,95367.41
2023-01-07T00:38:49.014Z,95375.00
2023-01-07T00:41:42.974Z,95383.44
2023-01-07T00:44:37.026Z,95384.28
2023-01-07T00:47:23.991Z,95391.03
2023-01-07T00:49:57.064Z,95393.56
2023-01-07T00:52:44.006Z,95390.22
2023-01-07T00:55:23.984Z,95389.38
2023-01-07T00:58:17.997Z,95396.13
2023-01-07T01:01:07.069Z,95389.38
2023-01-07T01:03:47.001Z,95393.63
2023-01-07T01:06:41.008Z,95387.75
2023-01-07T01:09:34.988Z,95396.19
2023-01-07T01:12:22.006Z,95398.69
2023-01-07T01:14:55.117Z,95397.00
2023-01-07T01:17:42.023Z,95398.69
2023-01-07T01:20:19.107Z,95397.84
2023-01-07T01:23:06.044Z,95401.25
2023-01-07T01:25:40.085Z,95404.59
2023-01-07T01:28:26.990Z,95410.53
2023-01-07T01:31:10.059Z,95408.00
2023-01-07T01:34:07.007Z,95407.97
2023-01-07T01:37:01.023Z,95404.63
2023-01-07T01:39:48.023Z,95408.88
2023-01-07T01:42:29.101Z,95400.41
2023-01-07T01:45:17.029Z,95405.47
2023-01-07T01:48:06.027Z,95398.75
2023-01-07T01:50:55.017Z,95397.88
2023-01-07T01:53:38.112Z,95400.41
2023-01-07T01:56:32.036Z,95381.84
2023-01-07T01:59:11.165Z,95383.53
2023-01-07T02:01:58.161Z,95388.63
2023-01-07T02:04:34.117Z,95390.28
2023-01-07T02:07:24.017Z,95389.47
2023-01-07T02:10:12.142Z,95378.47
2023-01-07T02:13:21.013Z,95378.50
2023-01-07T02:15:57.188Z,95374.25
2023-01-07T02:19:16.014Z,95377.63
2023-01-07T02:22:12.032Z,95383.56
2023-01-07T02:25:36.024Z,95378.47
2023-01-07T02:29:00.042Z,95379.34
2023-01-07T02:32:11.048Z,95379.31
2023-01-07T02:35:05.062Z,95386.06
2023-01-07T02:38:27.036Z,95394.47
2023-01-07T02:41:46.043Z,95381.84
2023-01-07T02:44:42.148Z,95390.28
2023-01-07T02:47:29.031Z,95383.53
2023-01-07T02:50:09.034Z,95395.34
2023-01-07T02:53:03.032Z,95386.06
2023-01-07T02:55:56.041Z,95389.44
2023-01-07T02:58:54.126Z,95401.28
2023-01-07T03:02:10.044Z,95405.53
2023-01-07T03:05:02.144Z,95401.31
2023-01-07T03:08:26.066Z,95407.19
2023-01-07T03:11:08.144Z,95402.13
2023-01-07T03:14:05.071Z,95405.47
2023-01-07T03:16:38.288Z,95402.09
2023-01-07T03:19:29.030Z,95404.59
2023-01-07T03:22:05.166Z,95415.59
2023-01-07T03:24:54.042Z,95403.75
2023-01-07T03:27:37.063Z,95415.59
2023-01-07T03:30:33.048Z,95415.63
2023-01-07T03:33:28.073Z,95408.00
2023-01-07T03:36:12.079Z,95407.19
2023-01-07T03:39:06.037Z,95404.63
2023-01-07T03:42:15.041Z,95408.88
2023-01-07T03:44:55.071Z,95406.34
2023-01-07T03:47:44.071Z,95410.59
2023-01-07T03:50:17.217Z,95414.81
2023-01-07T03:53:04.080Z,95410.59
2023-01-07T03:55:37.177Z,95411.41
2023-01-07T03:58:17.071Z,95413.13
2023-01-07T04:01:04.197Z,95409.72
2023-01-07T04:03:51.072Z,95410.56
2023-01-07T04:06:24.212Z,95418.19
2023-01-07T04:09:11.095Z,95413.94
2023-01-07T04:11:44.154Z,95416.47
2023-01-07T04:14:31.093Z,95419.81
2023-01-07T04:17:14.100Z,95413.09
2023-01-07T04:20:01.077Z,95420.66
2023-01-07T04:22:43.072Z,95415.59
2023-01-07T04:25:37.109Z,95412.19
2023-01-07T04:28:24.084Z,95422.31
2023-01-07T04:30:57.199Z,95420.66
2023-01-07T04:33:44.098Z,95412.19
2023-01-07T04:36:17.217Z,95414.72
2023-01-07T04:39:04.104Z,95418.13
2023-01-07T04:41:37.188Z,95408.00
2023-01-07T04:44:24.075Z,95421.50
2023-01-07T04:46:57.238Z,95417.25
2023-01-07T04:49:44.109Z,95414.72
2023-01-07T04:52:17.246Z,95418.13
2023-01-07T04:55:04.085Z,95419.00
2023-01-07T04:57:37.164Z,95417.31
2023-01-07T05:00:24.101Z,95422.38
2023-01-07T05:02:57.249Z,95419.84
2023-01-07T05:05:44.120Z,95419.84
2023-01-07T05:08:17.185Z,95430.84
2023-01-07T05:11:04.121Z,95426.63
2023-01-07T05:13:37.229Z,95425.78
2023-01-07T05:16:24.098Z,95429.19
2023-01-07T05:18:57.275Z,95426.63
2023-01-07T05:21:44.142Z,95427.50
2023-01-07T05:24:24.107Z,95433.38
2023-01-07T05:27:18.105Z,95434.25
2023-01-07T05:30:05.138Z,95437.63
2023-01-07T05:32:38.234Z,95436.81
2023-01-07T05:35:25.121Z,95428.38
2023-01-07T05:38:05.124Z,95432.63
2023-01-07T05:41:02.106Z,95430.03
2023-01-07T05:43:49.109Z,95437.63
2023-01-07T05:46:29.165Z,95426.66
2023-01-07T05:49:16.119Z,95432.50
2023-01-07T05:51:49.252Z,95436.72
2023-01-07T05:54:36.104Z,95444.28
2023-01-07T05:57:09.384Z,95451.84
2023-01-07T05:59:56.119Z,95444.25
2023-01-07T06:02:29.226Z,95448.47
2023-01-07T06:05:16.126Z,95445.09
2023-01-07T06:07:49.213Z,95449.28
2023-01-07T06:10:36.103Z,95446.75
2023-01-07T06:13:09.224Z,95454.41
2023-01-07T06:15:56.122Z,95453.56
2023-01-07T06:18:29.226Z,95463.69
2023-01-07T06:21:16.117Z,95471.34
2023-01-07T06:23:49.217Z,95470.50
2023-01-07T06:26:36.120Z,95471.31
2023-01-07T06:29:09.308Z,95472.19
2023-01-07T06:31:56.124Z,95472.19
2023-01-07T06:34:29.201Z,95467.97
2023-01-07T06:37:24.128Z,95466.31
2023-01-07T06:40:12.153Z,95468.00
2023-01-07T06:42:45.238Z,95468.84
2023-01-07T06:45:32.146Z,95473.03
2023-01-07T06:48:05.247Z,95469.69
2023-01-07T06:50:52.146Z,95463.78
2023-01-07T06:53:25.271Z,95476.44
2023-01-07T06:56:12.167Z,95467.97
2023-01-07T06:58:45.238Z,95462.03
2023-01-07T07:01:32.233Z,95472.19
2023-01-07T07:04:12.172Z,95468.84
2023-01-07T07:07:06.309Z,95470.53
2023-01-07T07:09:53.167Z,95474.78
2023-01-07T07:12:33.130Z,95469.72
2023-01-07T07:15:27.209Z,95473.09
2023-01-07T07:18:14.168Z,95469.72
2023-01-07T07:20:47.292Z,95466.34
2023-01-07T07:23:34.166Z,95470.59
2023-01-07T07:26:07.355Z,95471.47
2023-01-07T07:28:54.189Z,95473.16
2023-01-07T07:31:27.413Z,95479.94
2023-01-07T07:34:15.268Z,95469.84
2023-01-07T07:36:48.265Z,95478.34
2023-01-07T07:39:42.193Z,95484.25
2023-01-07T07:43:11.885Z,95475.78
2023-01-07T07:45:50.132Z,95477.53
2023-01-07T07:48:44.160Z,95470.78
2023-01-07T07:51:38.152Z,95472.50
2023-01-07T07:54:25.159Z,95470.00
2023-01-07T07:56:58.530Z,95476.78
2023-01-07T07:59:45.137Z,95474.25
2023-01-07T08:02:21.328Z,95478.47
2023-01-07T08:05:08.180Z,95476.81
2023-01-07T08:07:41.270Z,95480.22
2023-01-07T08:10:29.167Z,95482.78
2023-01-07T08:13:09.159Z,95488.72
2023-01-07T08:15:56.209Z,95486.19
2023-01-07T08:18:29.273Z,95489.66
2023-01-07T08:21:18.483Z,95491.38
2023-01-07T08:23:58.217Z,95493.94
2023-01-07T08:26:52.172Z,95496.50
2023-01-07T08:29:39.195Z,95488.06
2023-01-07T08:32:12.248Z,95491.47
2023-01-07T08:34:59.178Z,95494.00
2023-01-07T08:37:39.204Z,95487.28
2023-01-07T08:40:26.323Z,95488.16
2023-01-07T08:42:59.630Z,95490.69
2023-01-07T08:45:46.185Z,95499.13
2023-01-07T08:48:19.292Z,95490.72
2023-01-07T08:51:06.172Z,95489.00
2023-01-07T08:53:40.267Z,95495.81
2023-01-07T08:56:27.189Z,95488.19
2023-01-07T08:59:07.280Z,95494.13
2023-01-07T09:02:01.271Z,95496.72
2023-01-07T09:04:48.177Z,95495.88
2023-01-07T09:07:21.278Z,95496.78
2023-01-07T09:10:08.198Z,95501.88
2023-01-07T09:12:41.307Z,95505.25
2023-01-07T09:15:28.215Z,95506.91
2023-01-07T09:18:10.238Z,95510.31
2023-01-07T09:21:04.248Z,95507.81
2023-01-07T09:23:51.253Z,95507.03
2023-01-07T09:26:24.281Z,95507.91
2023-01-07T09:29:11.164Z,95506.19
2023-01-07T09:31:44.339Z,95507.06
2023-01-07T09:34:31.187Z,95503.72
2023-01-07T09:37:04.352Z,95496.13
2023-01-07T09:39:58.203Z,95499.53
2023-01-07T09:43:03.189Z,95495.34
2023-01-07T09:46:06.259Z,95493.72
2023-01-07T09:49:05.185Z,95493.78
2023-01-07T09:51:58.215Z,95498.91
2023-01-07T09:54:42.364Z,95501.44
2023-01-07T09:57:29.203Z,95498.03
2023-01-07T10:00:10.197Z,95500.59
2023-01-07T10:03:04.193Z,95504.84
2023-01-07T10:06:10.195Z,95503.19
2023-01-07T10:09:30.204Z,95502.34
2023-01-07T10:12:21.298Z,95502.38
2023-01-07T10:15:14.229Z,95493.94
2023-01-07T10:17:53.357Z,95493.13
2023-01-07T10:20:53.291Z,95488.03
2023-01-07T10:23:30.206Z,95491.44
2023-01-07T10:26:46.229Z,95491.44
2023-01-07T10:29:36.205Z,95493.97
2023-01-07T10:32:26.231Z,95493.16
2023-01-07T10:35:03.301Z,95490.66
2023-01-07T10:37:57.224Z,95494.00
2023-01-07T10:40:59.218Z,95492.38
2023-01-07T10:44:08.224Z,95500.81
2023-01-07T10:47:20.222Z,95494.91
2023-01-07T10:50:25.241Z,95489.88
2023-01-07T10:53:37.233Z,95496.66
2023-01-07T10:56:29.229Z,95494.13
2023-01-07T10:59:02.373Z,95482.25
2023-01-07T11:01:55.426Z,95487.34
2023-01-07T11:04:29.312Z,95482.25
2023-01-07T11:07:36.224Z,95483.97
2023-01-07T11:10:11.357Z,95474.69
2023-01-07T11:13:03.260Z,95483.16
2023-01-07T11:15:46.364Z,95482.31
2023-01-07T11:18:36.242Z,95474.69
2023-01-07T11:21:09.315Z,95467.06
2023-01-07T11:24:42.244Z,95463.69
2023-01-07T11:27:24.349Z,95455.22
2023-01-07T11:30:23.232Z,95452.69
2023-01-07T11:33:09.340Z,95448.44
2023-01-07T11:36:01.386Z,95443.41
2023-01-07T11:38:37.339Z,95433.25
2023-01-07T11:41:30.210Z,95422.28
2023-01-07T11:44:06.325Z,95417.22
2023-01-07T11:46:53.270Z,95427.41
2023-01-07T11:49:44.259Z,95416.44
2023-01-07T11:52:31.254Z,95418.16
2023-01-07T11:55:04.359Z,95419.03
2023-01-07T11:58:29.450Z,95417.28
2023-01-07T12:00:59.266Z,95422.38
2023-01-07T12:04:05.235Z,95408.84
2023-01-07T12:06:54.247Z,95406.31
2023-01-07T12:09:39.247Z,95393.66
2023-01-07T12:12:38.280Z,95393.66
2023-01-07T12:15:31.387Z,95399.56
2023-01-07T12:18:45.275Z,95402.91
2023-01-07T12:21:50.382Z,95411.31
2023-01-07T12:24:55.250Z,95413.84
2023-01-07T12:27:54.323Z,95407.94
2023-01-07T12:31:12.346Z,95407.13
2023-01-07T12:34:25.272Z,95404.59
2023-01-07T12:37:16.292Z,95412.22
2023-01-07T12:40:20.264Z,95402.03
2023-01-07T12:43:31.258Z,95404.53
2023-01-07T12:46:21.345Z,95398.59
2023-01-07T12:49:28.283Z,95394.34
2023-01-07T12:52:23.258Z,95389.25
2023-01-07T12:55:04.406Z,95384.97
2023-01-07T12:57:56.256Z,95381.53
2023-01-07T13:00:37.373Z,95380.69
2023-01-07T13:03:47.256Z,95379.81
2023-01-07T13:06:49.273Z,95381.50
2023-01-07T13:10:01.281Z,95388.28
2023-01-07T13:12:49.275Z,95389.13
2023-01-07T13:15:43.318Z,95386.56
2023-01-07T13:18:30.268Z,95377.31
2023-01-07T13:21:16.312Z,95379.00
2023-01-07T13:24:56.316Z,95385.75
2023-01-07T13:28:01.296Z,95384.91
2023-01-07T13:31:06.298Z,95378.16
2023-01-07T13:34:08.313Z,95389.16
2023-01-07T13:37:22.282Z,95394.22
2023-01-07T13:40:45.301Z,95391.66
2023-01-07T13:44:13.287Z,95397.56
2023-01-07T13:46:51.388Z,95384.88
2023-01-07T13:49:40.283Z,95388.19
2023-01-07T13:52:34.416Z,95394.09
2023-01-07T13:55:41.311Z,95389.81
2023-01-07T13:58:56.304Z,95392.38
2023-01-07T14:02:42.398Z,95390.66
2023-01-07T14:05:41.302Z,95383.88
2023-01-07T14:08:35.287Z,95392.28
2023-01-07T14:11:08.380Z,95390.63
2023-01-07T14:14:05.290Z,95397.38
2023-01-07T14:16:47.397Z,95387.34
2023-01-07T14:19:55.313Z,95390.75
2023-01-07T14:22:59.284Z,95392.47
2023-01-07T14:25:59.309Z,95393.34
2023-01-07T14:28:56.316Z,95397.50
2023-01-07T14:31:35.490Z,95399.19
2023-01-07T14:34:29.293Z,95400.88
2023-01-07T14:37:12.471Z,95399.16
2023-01-07T14:40:06.366Z,95398.28
2023-01-07T14:43:00.317Z,95401.63
2023-01-07T14:45:54.347Z,95404.97
2023-01-07T14:48:43.297Z,95399.03
2023-01-07T14:51:28.474Z,95403.38
2023-01-07T14:54:39.302Z,95395.94
2023-01-07T14:57:31.501Z,95393.34
2023-01-07T15:00:37.329Z,95392.44
2023-01-07T15:03:23.450Z,95397.44
2023-01-07T15:06:28.314Z,95397.34
2023-01-07T15:09:29.306Z,95394.75
2023-01-07T15:12:44.333Z,95387.91
2023-01-07T15:15:48.334Z,95387.00
2023-01-07T15:18:55.314Z,95385.25
2023-01-07T15:21:57.316Z,95380.09
2023-01-07T15:24:36.460Z,95390.22
2023-01-07T15:27:48.322Z,95390.19
2023-01-07T15:30:34.339Z,95391.81
2023-01-07T15:33:33.323Z,95391.84
2023-01-07T15:36:22.384Z,95386.72
2023-01-07T15:39:05.476Z,95393.44
2023-01-07T15:41:52.322Z,95392.50
2023-01-07T15:44:39.597Z,95390.78
2023-01-07T15:47:54.333Z,95395.00
2023-01-07T15:50:49.351Z,95394.19
2023-01-07T15:53:36.363Z,95389.97
2023-01-07T15:56:25.367Z,95394.16
2023-01-07T15:59:21.345Z,95389.09
2023-01-07T16:02:22.146Z,95389.97
2023-01-07T16:05:08.392Z,95380.66
2023-01-07T16:08:05.336Z,95377.28
2023-01-07T16:11:10.364Z,95374.75
2023-01-07T16:13:50.340Z,95371.38
2023-01-07T16:16:45.358Z,95368.00
2023-01-07T16:19:32.364Z,95367.09
2023-01-07T16:22:07.498Z,95362.00
2023-01-07T16:25:00.383Z,95368.72
2023-01-07T16:27:44.566Z,95366.16
2023-01-07T16:30:31.359Z,95352.63
2023-01-07T16:33:05.678Z,95355.16
2023-01-07T16:35:54.369Z,95349.22
2023-01-07T16:38:28.462Z,95342.47
2023-01-07T16:41:26.350Z,95340.75
2023-01-07T16:44:08.355Z,95344.97
2023-01-07T16:47:12.335Z,95344.09
2023-01-07T16:49:55.369Z,95344.09
2023-01-07T16:53:02.352Z,95339.81
2023-01-07T16:55:51.395Z,95342.34
2023-01-07T16:58:53.510Z,95343.25
2023-01-07T17:01:41.371Z,95334.81
2023-01-07T17:04:23.842Z,95339.03
2023-01-07T17:07:10.383Z,95344.03
2023-01-07T17:09:45.501Z,95342.38
2023-01-07T17:12:47.362Z,95344.91
2023-01-07T17:15:48.384Z,95328.00
2023-01-07T17:18:42.377Z,95339.84
2023-01-07T17:21:55.380Z,95339.00
2023-01-07T17:24:45.371Z,95339.00
2023-01-07T17:27:30.501Z,95338.13
2023-01-07T17:30:28.383Z,95333.06
2023-01-07T17:33:08.467Z,95332.19
2023-01-07T17:36:04.388Z,95331.28
2023-01-07T17:38:59.368Z,95333.81
2023-01-07T17:42:13.385Z,95329.63
2023-01-07T17:45:00.368Z,95335.53
2023-01-07T17:47:40.381Z,95328.81
2023-01-07T17:50:27.381Z,95323.72
2023-01-07T17:53:01.545Z,95325.47
2023-01-07T17:55:48.388Z,95321.22
2023-01-07T17:58:33.541Z,95318.69
2023-01-07T18:01:23.517Z,95317.88
2023-01-07T18:03:58.489Z,95311.97
2023-01-07T18:06:48.400Z,95306.06
2023-01-07T18:09:21.503Z,95310.31
2023-01-07T18:12:26.399Z,95310.31
2023-01-07T18:14:59.601Z,95310.31
2023-01-07T18:17:46.375Z,95303.56
2023-01-07T18:20:27.434Z,95301.84
2023-01-07T18:23:24.386Z,95306.06
2023-01-07T18:26:12.411Z,95300.94
2023-01-07T18:28:46.483Z,95303.50
2023-01-07T18:31:33.443Z,95303.47
2023-01-07T18:34:06.487Z,95311.09
2023-01-07T18:36:53.392Z,95300.97
2023-01-07T18:39:33.410Z,95309.44
2023-01-07T18:42:27.385Z,95301.81
2023-01-07T18:45:14.411Z,95306.84
2023-01-07T18:47:47.551Z,95294.13
2023-01-07T18:50:34.400Z,95297.47
2023-01-07T18:53:07.544Z,95297.47
2023-01-07T18:56:04.343Z,95296.53
2023-01-07T18:58:45.889Z,95289.78
2023-01-07T19:01:32.474Z,95293.16
2023-01-07T19:04:06.749Z,95299.84
2023-01-07T19:06:53.434Z,95286.31
2023-01-07T19:09:27.534Z,95289.66
2023-01-07T19:12:14.474Z,95292.16
2023-01-07T19:14:55.452Z,95296.34
2023-01-07T19:17:42.474Z,95293.81
2023-01-07T19:20:23.425Z,95293.81
2023-01-07T19:23:10.407Z,95290.41
2023-01-07T19:25:43.609Z,95296.34
2023-01-07T19:28:30.417Z,95307.31
2023-01-07T19:31:03.549Z,95298.00
2023-01-07T19:33:50.422Z,95302.19
2023-01-07T19:36:30.411Z,95308.13
2023-01-07T19:39:29.417Z,95308.06
2023-01-07T19:42:26.400Z,95300.50
2023-01-07T19:45:13.537Z,95309.78
2023-01-07T19:47:47.617Z,95313.19
2023-01-07T19:50:37.467Z,95303.06
2023-01-07T19:53:18.473Z,95303.06
2023-01-07T19:56:14.417Z,95308.13
2023-01-07T19:59:01.436Z,95307.28
2023-01-07T20:01:36.380Z,95307.31
2023-01-07T20:04:23.467Z,95313.19
2023-01-07T20:06:56.571Z,95305.59
2023-01-07T20:09:43.485Z,95316.56
2023-01-07T20:12:16.563Z,95315.72
2023-01-07T20:15:03.428Z,95314.03
2023-01-07T20:17:36.619Z,95306.44
2023-01-07T20:20:23.469Z,95306.44
2023-01-07T20:22:58.755Z,95300.53
2023-01-07T20:25:49.437Z,95295.44
2023-01-07T20:28:22.584Z,95281.91
2023-01-07T20:31:15.439Z,95287.81
2023-01-07T20:33:50.565Z,95283.56
2023-01-07T20:36:33.458Z,95280.97
2023-01-07T20:39:28.484Z,95280.13
2023-01-07T20:42:22.479Z,95282.66
2023-01-07T20:45:09.455Z,95280.97
2023-01-07T20:47:49.425Z,95282.63
2023-01-07T20:50:43.443Z,95275.03
2023-01-07T20:53:39.432Z,95277.56
2023-01-07T20:56:28.483Z,95274.19
2023-01-07T20:59:01.681Z,95276.72
2023-01-07T21:01:49.935Z,95270.81
2023-01-07T21:04:23.608Z,95274.19
2023-01-07T21:07:10.479Z,95269.97
2023-01-07T21:09:44.932Z,95269.19
2023-01-07T21:12:31.530Z,95267.47
2023-01-07T21:15:04.621Z,95264.13
2023-01-07T21:17:51.508Z,95264.94
2023-01-07T21:20:31.461Z,95264.13
2023-01-07T21:23:18.484Z,95271.72
2023-01-07T21:25:54.618Z,95264.13
2023-01-07T21:28:41.524Z,95261.59
2023-01-07T21:31:17.690Z,95259.91
2023-01-07T21:34:04.485Z,95262.44
2023-01-07T21:36:44.478Z,95259.91
2023-01-07T21:39:38.478Z,95259.91
2023-01-07T21:42:25.510Z,95259.97
2023-01-07T21:44:58.573Z,95257.44
2023-01-07T21:47:45.498Z,95261.66
2023-01-07T21:50:18.719Z,95261.69
2023-01-07T21:53:05.540Z,95260.81
2023-01-07T21:55:46.492Z,95266.72
2023-01-07T21:58:40.479Z,95259.97
2023-01-07T22:01:27.667Z,95263.34
2023-01-07T22:04:03.703Z,95266.72
2023-01-07T22:06:50.497Z,95267.53
2023-01-07T22:09:25.266Z,95263.31
2023-01-07T22:12:11.516Z,95265.00
2023-01-07T22:14:51.516Z,95262.50
2023-01-07T22:17:48.486Z,95260.81
2023-01-07T22:20:44.493Z,95262.50
2023-01-07T22:23:38.480Z,95258.28
2023-01-07T22:26:33.502Z,95254.91
2023-01-07T22:29:23.535Z,95257.44
2023-01-07T22:31:56.763Z,95246.44
2023-01-07T22:34:43.513Z,95243.03
2023-01-07T22:37:26.417Z,95235.47
2023-01-07T22:40:20.502Z,95238.88
2023-01-07T22:43:12.491Z,95232.13
2023-01-07T22:46:08.573Z,95234.63
2023-01-07T22:49:02.585Z,95229.56
2023-01-07T22:51:54.502Z,95226.19
2023-01-07T22:54:27.599Z,95222.00
2023-01-07T22:57:16.497Z,95222.84
2023-01-07T22:59:52.619Z,95222.81
2023-01-07T23:02:33.529Z,95213.56
2023-01-07T23:05:20.503Z,95219.47
2023-01-07T23:08:10.495Z,95210.16
2023-01-07T23:10:51.512Z,95215.22
2023-01-07T23:13:42.236Z,95214.41
2023-01-07T23:16:22.544Z,95206.81
2023-01-07T23:19:17.374Z,95207.66
2023-01-07T23:22:04.510Z,95210.16
2023-01-07T23:24:37.647Z,95197.53
2023-01-07T23:27:24.511Z,95195.84
2023-01-07T23:29:58.674Z,95196.69
2023-01-07T23:32:45.595Z,95189.13
2023-01-07T23:35:19.668Z,95181.53
2023-01-07T23:38:06.575Z,95188.28
2023-01-07T23:40:40.430Z,95180.69
2023-01-07T23:43:27.592Z,95172.22
2023-01-07T23:46:03.692Z,95173.03
2023-01-07T23:48:50.582Z,95167.09
2023-01-07T23:51:25.662Z,95164.56
2023-01-07T23:54:12.556Z,95157.84
2023-01-07T23:56:52.581Z,95158.66
2023-01-07T23:59:39.569Z,95153.56
